Terminal Aerodrome Forecast
Issued by NWS

Home | Current Version | Previous Version | Text Only | Print | Product List | Glossary On
Versions: 1 2 3 4 5 6 7 8 9 10 11 12 13 14
000
FTUS42 KTBW 211120
TAFRSW
TAF
KRSW 211120Z 2112/2212 VRB03KT P6SM FEW250
     FM211400 VRB04KT P6SM VCTS SCT030CB SCT250
     FM211800 23008KT P6SM VCTS SCT040CB BKN120
     FM220200 VRB03KT P6SM SCT250=

USA.gov is the U.S. government's official web portal to all federal, state and local government web resources and services.